sensor_id;sensor_type;location;lat;lon;timestamp;P1;durP1;ratioP1;P2;durP2;ratioP2
45296;SDS011;31040;51.622;10.420;2023-05-07T00:00:03;21.25;;;16.52;;
45296;SDS011;31040;51.622;10.420;2023-05-07T00:02:35;23.92;;;16.25;;
45296;SDS011;31040;51.622;10.420;2023-05-07T00:05:03;23.00;;;16.55;;
45296;SDS011;31040;51.622;10.420;2023-05-07T00:07:31;23.08;;;16.35;;
45296;SDS011;31040;51.622;10.420;2023-05-07T00:09:58;22.50;;;15.77;;
45296;SDS011;31040;51.622;10.420;2023-05-07T00:12:26;20.90;;;15.35;;
45296;SDS011;31040;51.622;10.420;2023-05-07T00:14:53;22.98;;;16.80;;
45296;SDS011;31040;51.622;10.420;2023-05-07T00:17:21;22.08;;;16.83;;
45296;SDS011;31040;51.622;10.420;2023-05-07T00:19:48;24.00;;;17.70;;
45296;SDS011;31040;51.622;10.420;2023-05-07T00:22:15;23.50;;;17.77;;
45296;SDS011;31040;51.622;10.420;2023-05-07T00:24:43;21.10;;;15.13;;
45296;SDS011;31040;51.622;10.420;2023-05-07T00:27:10;21.10;;;15.98;;
45296;SDS011;31040;51.622;10.420;2023-05-07T00:29:38;17.83;;;13.85;;
45296;SDS011;31040;51.622;10.420;2023-05-07T00:32:05;20.63;;;16.15;;
45296;SDS011;31040;51.622;10.420;2023-05-07T00:34:33;21.80;;;16.33;;
45296;SDS011;31040;51.622;10.420;2023-05-07T00:37:01;21.42;;;15.70;;
45296;SDS011;31040;51.622;10.420;2023-05-07T00:39:31;20.83;;;15.45;;
45296;SDS011;31040;51.622;10.420;2023-05-07T00:41:59;22.73;;;16.65;;
45296;SDS011;31040;51.622;10.420;2023-05-07T00:44:26;23.38;;;16.42;;
45296;SDS011;31040;51.622;10.420;2023-05-07T00:46:55;23.70;;;16.05;;
45296;SDS011;31040;51.622;10.420;2023-05-07T00:49:27;24.55;;;17.83;;
45296;SDS011;31040;51.622;10.420;2023-05-07T00:51:58;25.17;;;17.40;;
45296;SDS011;31040;51.622;10.420;2023-05-07T00:54:27;24.38;;;16.63;;
45296;SDS011;31040;51.622;10.420;2023-05-07T00:56:54;26.55;;;17.98;;
45296;SDS011;31040;51.622;10.420;2023-05-07T00:59:21;24.83;;;16.55;;
45296;SDS011;31040;51.622;10.420;2023-05-07T01:01:49;26.98;;;18.98;;
45296;SDS011;31040;51.622;10.420;2023-05-07T01:04:16;31.33;;;19.25;;
45296;SDS011;31040;51.622;10.420;2023-05-07T01:06:44;28.65;;;20.45;;
45296;SDS011;31040;51.622;10.420;2023-05-07T01:09:13;28.23;;;18.42;;
45296;SDS011;31040;51.622;10.420;2023-05-07T01:11:40;34.10;;;20.25;;
45296;SDS011;31040;51.622;10.420;2023-05-07T01:14:09;30.88;;;19.77;;
45296;SDS011;31040;51.622;10.420;2023-05-07T01:16:36;28.27;;;17.83;;
45296;SDS011;31040;51.622;10.420;2023-05-07T01:19:04;27.02;;;17.55;;
45296;SDS011;31040;51.622;10.420;2023-05-07T01:21:32;30.13;;;18.50;;
45296;SDS011;31040;51.622;10.420;2023-05-07T01:24:03;29.48;;;19.48;;
45296;SDS011;31040;51.622;10.420;2023-05-07T01:26:31;28.42;;;17.95;;
45296;SDS011;31040;51.622;10.420;2023-05-07T01:28:58;28.77;;;17.50;;
45296;SDS011;31040;51.622;10.420;2023-05-07T01:31:26;28.50;;;18.00;;
45296;SDS011;31040;51.622;10.420;2023-05-07T01:33:53;27.38;;;16.13;;
45296;SDS011;31040;51.622;10.420;2023-05-07T01:36:20;26.27;;;17.40;;
45296;SDS011;31040;51.622;10.420;2023-05-07T01:38:52;28.35;;;16.35;;
45296;SDS011;31040;51.622;10.420;2023-05-07T01:41:19;24.17;;;14.00;;
45296;SDS011;31040;51.622;10.420;2023-05-07T01:43:48;26.48;;;15.65;;
45296;SDS011;31040;51.622;10.420;2023-05-07T01:46:15;25.50;;;17.38;;
45296;SDS011;31040;51.622;10.420;2023-05-07T01:48:43;23.35;;;13.98;;
45296;SDS011;31040;51.622;10.420;2023-05-07T01:51:12;23.17;;;14.32;;
45296;SDS011;31040;51.622;10.420;2023-05-07T01:53:39;27.77;;;17.30;;
45296;SDS011;31040;51.622;10.420;2023-05-07T01:56:07;25.35;;;14.43;;
45296;SDS011;31040;51.622;10.420;2023-05-07T01:58:34;24.13;;;15.02;;
45296;SDS011;31040;51.622;10.420;2023-05-07T02:01:02;21.98;;;12.45;;
45296;SDS011;31040;51.622;10.420;2023-05-07T02:03:29;22.63;;;15.13;;
45296;SDS011;31040;51.622;10.420;2023-05-07T02:05:57;26.10;;;15.48;;
45296;SDS011;31040;51.622;10.420;2023-05-07T02:08:24;20.38;;;14.52;;
45296;SDS011;31040;51.622;10.420;2023-05-07T02:10:51;24.17;;;15.98;;
45296;SDS011;31040;51.622;10.420;2023-05-07T02:13:20;25.42;;;15.57;;
45296;SDS011;31040;51.622;10.420;2023-05-07T02:15:48;23.20;;;15.18;;
45296;SDS011;31040;51.622;10.420;2023-05-07T02:18:16;26.85;;;17.38;;
45296;SDS011;31040;51.622;10.420;2023-05-07T02:20:44;21.60;;;15.50;;
45296;SDS011;31040;51.622;10.420;2023-05-07T02:23:11;23.15;;;14.05;;
45296;SDS011;31040;51.622;10.420;2023-05-07T02:25:38;23.00;;;15.32;;
45296;SDS011;31040;51.622;10.420;2023-05-07T02:28:06;23.73;;;15.60;;
45296;SDS011;31040;51.622;10.420;2023-05-07T02:30:33;24.20;;;16.35;;
45296;SDS011;31040;51.622;10.420;2023-05-07T02:33:01;24.45;;;16.30;;
45296;SDS011;31040;51.622;10.420;2023-05-07T02:35:28;24.85;;;15.52;;
45296;SDS011;31040;51.622;10.420;2023-05-07T02:37:56;22.90;;;15.82;;
45296;SDS011;31040;51.622;10.420;2023-05-07T02:40:23;24.45;;;15.75;;
45296;SDS011;31040;51.622;10.420;2023-05-07T02:42:50;20.50;;;14.85;;
45296;SDS011;31040;51.622;10.420;2023-05-07T02:45:18;26.20;;;16.55;;
45296;SDS011;31040;51.622;10.420;2023-05-07T02:47:45;22.75;;;15.90;;
45296;SDS011;31040;51.622;10.420;2023-05-07T02:50:13;24.77;;;15.50;;
45296;SDS011;31040;51.622;10.420;2023-05-07T02:52:41;20.52;;;12.32;;
45296;SDS011;31040;51.622;10.420;2023-05-07T02:55:08;20.35;;;13.82;;
45296;SDS011;31040;51.622;10.420;2023-05-07T02:57:36;19.52;;;13.75;;
45296;SDS011;31040;51.622;10.420;2023-05-07T03:02:40;19.83;;;12.93;;
45296;SDS011;31040;51.622;10.420;2023-05-07T03:05:07;18.05;;;11.90;;
45296;SDS011;31040;51.622;10.420;2023-05-07T03:07:35;18.75;;;12.68;;
45296;SDS011;31040;51.622;10.420;2023-05-07T03:10:03;19.90;;;12.50;;
45296;SDS011;31040;51.622;10.420;2023-05-07T03:12:30;18.23;;;11.98;;
45296;SDS011;31040;51.622;10.420;2023-05-07T03:14:57;18.48;;;13.02;;
45296;SDS011;31040;51.622;10.420;2023-05-07T03:17:25;16.35;;;11.82;;
45296;SDS011;31040;51.622;10.420;2023-05-07T03:19:52;17.50;;;12.02;;
45296;SDS011;31040;51.622;10.420;2023-05-07T03:22:20;18.95;;;11.60;;
45296;SDS011;31040;51.622;10.420;2023-05-07T03:24:47;16.80;;;10.48;;
45296;SDS011;31040;51.622;10.420;2023-05-07T03:27:14;16.33;;;10.30;;
45296;SDS011;31040;51.622;10.420;2023-05-07T03:29:42;14.52;;;9.00;;
45296;SDS011;31040;51.622;10.420;2023-05-07T03:32:09;14.88;;;8.75;;
45296;SDS011;31040;51.622;10.420;2023-05-07T03:34:36;17.38;;;11.05;;
45296;SDS011;31040;51.622;10.420;2023-05-07T03:37:04;16.30;;;10.00;;
45296;SDS011;31040;51.622;10.420;2023-05-07T03:39:31;16.55;;;9.18;;
45296;SDS011;31040;51.622;10.420;2023-05-07T03:41:58;13.80;;;9.93;;
45296;SDS011;31040;51.622;10.420;2023-05-07T03:44:27;14.63;;;10.55;;
45296;SDS011;31040;51.622;10.420;2023-05-07T03:46:54;13.73;;;8.50;;
45296;SDS011;31040;51.622;10.420;2023-05-07T03:49:22;13.23;;;9.20;;
45296;SDS011;31040;51.622;10.420;2023-05-07T03:51:49;14.68;;;9.50;;
45296;SDS011;31040;51.622;10.420;2023-05-07T03:54:16;15.30;;;10.35;;
45296;SDS011;31040;51.622;10.420;2023-05-07T03:56:44;15.90;;;9.98;;
45296;SDS011;31040;51.622;10.420;2023-05-07T03:59:14;14.63;;;9.88;;
45296;SDS011;31040;51.622;10.420;2023-05-07T04:01:41;12.90;;;8.32;;
45296;SDS011;31040;51.622;10.420;2023-05-07T04:04:09;16.60;;;10.25;;
45296;SDS011;31040;51.622;10.420;2023-05-07T04:06:36;14.35;;;9.20;;
45296;SDS011;31040;51.622;10.420;2023-05-07T04:09:04;14.68;;;8.95;;
45296;SDS011;31040;51.622;10.420;2023-05-07T04:11:31;14.07;;;9.18;;
45296;SDS011;31040;51.622;10.420;2023-05-07T04:13:59;13.63;;;9.80;;
45296;SDS011;31040;51.622;10.420;2023-05-07T04:16:26;14.13;;;9.82;;
45296;SDS011;31040;51.622;10.420;2023-05-07T04:18:53;13.32;;;8.13;;
45296;SDS011;31040;51.622;10.420;2023-05-07T04:21:21;14.35;;;8.70;;
45296;SDS011;31040;51.622;10.420;2023-05-07T04:23:48;13.45;;;9.07;;
45296;SDS011;31040;51.622;10.420;2023-05-07T04:26:16;15.02;;;9.60;;
45296;SDS011;31040;51.622;10.420;2023-05-07T04:28:43;13.98;;;9.93;;
45296;SDS011;31040;51.622;10.420;2023-05-07T04:31:11;14.20;;;9.77;;
45296;SDS011;31040;51.622;10.420;2023-05-07T04:33:38;12.88;;;8.48;;
45296;SDS011;31040;51.622;10.420;2023-05-07T04:36:06;16.42;;;11.05;;
45296;SDS011;31040;51.622;10.420;2023-05-07T04:38:33;14.68;;;9.23;;
45296;SDS011;31040;51.622;10.420;2023-05-07T04:41:04;13.98;;;9.40;;
45296;SDS011;31040;51.622;10.420;2023-05-07T04:43:32;15.00;;;8.98;;
45296;SDS011;31040;51.622;10.420;2023-05-07T04:45:59;16.15;;;9.80;;
45296;SDS011;31040;51.622;10.420;2023-05-07T04:48:27;13.73;;;8.68;;
45296;SDS011;31040;51.622;10.420;2023-05-07T04:50:55;14.35;;;9.50;;
45296;SDS011;31040;51.622;10.420;2023-05-07T04:53:22;15.70;;;9.90;;
45296;SDS011;31040;51.622;10.420;2023-05-07T04:55:54;14.88;;;10.35;;
45296;SDS011;31040;51.622;10.420;2023-05-07T04:58:22;15.73;;;9.38;;
45296;SDS011;31040;51.622;10.420;2023-05-07T05:00:50;16.02;;;8.63;;
45296;SDS011;31040;51.622;10.420;2023-05-07T05:03:17;13.80;;;8.70;;
45296;SDS011;31040;51.622;10.420;2023-05-07T05:05:45;13.23;;;8.27;;
45296;SDS011;31040;51.622;10.420;2023-05-07T05:08:12;12.05;;;7.63;;
45296;SDS011;31040;51.622;10.420;2023-05-07T05:10:39;14.82;;;9.15;;
45296;SDS011;31040;51.622;10.420;2023-05-07T05:13:08;13.30;;;7.20;;
45296;SDS011;31040;51.622;10.420;2023-05-07T05:15:35;12.35;;;7.43;;
45296;SDS011;31040;51.622;10.420;2023-05-07T05:18:03;11.15;;;7.78;;
45296;SDS011;31040;51.622;10.420;2023-05-07T05:20:30;12.80;;;8.55;;
45296;SDS011;31040;51.622;10.420;2023-05-07T05:22:58;11.50;;;6.90;;
45296;SDS011;31040;51.622;10.420;2023-05-07T05:25:25;10.88;;;7.88;;
45296;SDS011;31040;51.622;10.420;2023-05-07T05:27:53;13.15;;;7.72;;
45296;SDS011;31040;51.622;10.420;2023-05-07T05:30:21;13.30;;;8.35;;
45296;SDS011;31040;51.622;10.420;2023-05-07T05:32:48;12.23;;;7.40;;
45296;SDS011;31040;51.622;10.420;2023-05-07T05:35:16;11.55;;;7.20;;
45296;SDS011;31040;51.622;10.420;2023-05-07T05:37:43;14.40;;;8.70;;
45296;SDS011;31040;51.622;10.420;2023-05-07T05:40:11;11.50;;;7.65;;
45296;SDS011;31040;51.622;10.420;2023-05-07T05:42:38;13.68;;;8.13;;
45296;SDS011;31040;51.622;10.420;2023-05-07T05:45:06;10.23;;;6.07;;
45296;SDS011;31040;51.622;10.420;2023-05-07T05:47:33;11.63;;;7.60;;
45296;SDS011;31040;51.622;10.420;2023-05-07T05:50:01;11.07;;;7.75;;
45296;SDS011;31040;51.622;10.420;2023-05-07T05:52:28;12.65;;;7.85;;
45296;SDS011;31040;51.622;10.420;2023-05-07T05:54:56;13.13;;;8.85;;
45296;SDS011;31040;51.622;10.420;2023-05-07T05:57:23;14.32;;;8.15;;
45296;SDS011;31040;51.622;10.420;2023-05-07T05:59:53;15.30;;;8.23;;
45296;SDS011;31040;51.622;10.420;2023-05-07T06:02:21;13.48;;;8.38;;
45296;SDS011;31040;51.622;10.420;2023-05-07T06:04:48;10.93;;;7.10;;
45296;SDS011;31040;51.622;10.420;2023-05-07T06:07:16;13.95;;;9.10;;
45296;SDS011;31040;51.622;10.420;2023-05-07T06:09:45;14.52;;;9.43;;
45296;SDS011;31040;51.622;10.420;2023-05-07T06:12:13;12.88;;;8.02;;
45296;SDS011;31040;51.622;10.420;2023-05-07T06:14:42;12.20;;;8.95;;
45296;SDS011;31040;51.622;10.420;2023-05-07T06:17:09;14.60;;;9.32;;
45296;SDS011;31040;51.622;10.420;2023-05-07T06:19:37;13.48;;;8.80;;
45296;SDS011;31040;51.622;10.420;2023-05-07T06:22:04;12.05;;;8.00;;
45296;SDS011;31040;51.622;10.420;2023-05-07T06:24:32;13.32;;;8.70;;
45296;SDS011;31040;51.622;10.420;2023-05-07T06:26:59;12.00;;;6.40;;
45296;SDS011;31040;51.622;10.420;2023-05-07T06:29:26;11.65;;;7.57;;
45296;SDS011;31040;51.622;10.420;2023-05-07T06:31:54;13.57;;;8.40;;
45296;SDS011;31040;51.622;10.420;2023-05-07T06:34:21;15.35;;;8.85;;
45296;SDS011;31040;51.622;10.420;2023-05-07T06:36:49;11.88;;;8.25;;
45296;SDS011;31040;51.622;10.420;2023-05-07T06:39:16;15.85;;;9.07;;
45296;SDS011;31040;51.622;10.420;2023-05-07T06:41:43;14.07;;;8.50;;
45296;SDS011;31040;51.622;10.420;2023-05-07T06:44:11;13.98;;;7.63;;
45296;SDS011;31040;51.622;10.420;2023-05-07T06:46:38;13.20;;;8.30;;
45296;SDS011;31040;51.622;10.420;2023-05-07T06:49:06;13.35;;;7.88;;
45296;SDS011;31040;51.622;10.420;2023-05-07T06:51:33;15.60;;;9.35;;
45296;SDS011;31040;51.622;10.420;2023-05-07T06:54:01;11.98;;;7.63;;
45296;SDS011;31040;51.622;10.420;2023-05-07T06:56:30;15.85;;;9.52;;
45296;SDS011;31040;51.622;10.420;2023-05-07T06:58:59;16.73;;;10.60;;
45296;SDS011;31040;51.622;10.420;2023-05-07T07:01:26;13.75;;;9.93;;
45296;SDS011;31040;51.622;10.420;2023-05-07T07:03:54;16.55;;;10.35;;
45296;SDS011;31040;51.622;10.420;2023-05-07T07:06:21;14.07;;;8.80;;
45296;SDS011;31040;51.622;10.420;2023-05-07T07:08:49;15.80;;;9.43;;
45296;SDS011;31040;51.622;10.420;2023-05-07T07:11:16;12.65;;;8.82;;
45296;SDS011;31040;51.622;10.420;2023-05-07T07:13:43;12.77;;;8.90;;
45296;SDS011;31040;51.622;10.420;2023-05-07T07:16:11;10.80;;;8.18;;
45296;SDS011;31040;51.622;10.420;2023-05-07T07:18:38;12.95;;;7.78;;
45296;SDS011;31040;51.622;10.420;2023-05-07T07:21:06;12.65;;;8.43;;
45296;SDS011;31040;51.622;10.420;2023-05-07T07:23:33;12.90;;;9.23;;
45296;SDS011;31040;51.622;10.420;2023-05-07T07:26:01;13.50;;;9.43;;
45296;SDS011;31040;51.622;10.420;2023-05-07T07:28:28;12.63;;;8.52;;
45296;SDS011;31040;51.622;10.420;2023-05-07T07:30:55;11.30;;;9.25;;
45296;SDS011;31040;51.622;10.420;2023-05-07T07:33:23;11.18;;;7.57;;
45296;SDS011;31040;51.622;10.420;2023-05-07T07:35:50;11.38;;;8.27;;
45296;SDS011;31040;51.622;10.420;2023-05-07T07:38:18;12.75;;;9.30;;
45296;SDS011;31040;51.622;10.420;2023-05-07T07:40:47;11.68;;;8.52;;
45296;SDS011;31040;51.622;10.420;2023-05-07T07:43:14;13.82;;;8.50;;
45296;SDS011;31040;51.622;10.420;2023-05-07T07:45:41;12.70;;;9.25;;
45296;SDS011;31040;51.622;10.420;2023-05-07T07:48:09;13.85;;;9.32;;
45296;SDS011;31040;51.622;10.420;2023-05-07T07:50:37;10.63;;;7.47;;
45296;SDS011;31040;51.622;10.420;2023-05-07T07:53:10;9.75;;;7.07;;
45296;SDS011;31040;51.622;10.420;2023-05-07T07:55:38;10.13;;;7.00;;
45296;SDS011;31040;51.622;10.420;2023-05-07T07:58:06;11.13;;;8.48;;
45296;SDS011;31040;51.622;10.420;2023-05-07T08:00:34;10.43;;;6.85;;
45296;SDS011;31040;51.622;10.420;2023-05-07T08:03:01;10.25;;;7.55;;
45296;SDS011;31040;51.622;10.420;2023-05-07T08:05:29;9.85;;;6.80;;
45296;SDS011;31040;51.622;10.420;2023-05-07T08:07:57;10.38;;;6.78;;
45296;SDS011;31040;51.622;10.420;2023-05-07T08:10:24;9.52;;;7.30;;
45296;SDS011;31040;51.622;10.420;2023-05-07T08:12:52;10.40;;;8.07;;
45296;SDS011;31040;51.622;10.420;2023-05-07T08:15:19;9.15;;;6.78;;
45296;SDS011;31040;51.622;10.420;2023-05-07T08:17:47;8.32;;;5.97;;
45296;SDS011;31040;51.622;10.420;2023-05-07T08:20:14;9.63;;;7.32;;
45296;SDS011;31040;51.622;10.420;2023-05-07T08:22:42;9.57;;;7.80;;
45296;SDS011;31040;51.622;10.420;2023-05-07T08:25:09;12.93;;;8.52;;
45296;SDS011;31040;51.622;10.420;2023-05-07T08:27:36;14.25;;;8.82;;
45296;SDS011;31040;51.622;10.420;2023-05-07T08:30:04;13.85;;;6.93;;
45296;SDS011;31040;51.622;10.420;2023-05-07T08:32:31;10.77;;;7.65;;
45296;SDS011;31040;51.622;10.420;2023-05-07T08:34:59;11.70;;;8.60;;
45296;SDS011;31040;51.622;10.420;2023-05-07T08:37:27;12.00;;;8.70;;
45296;SDS011;31040;51.622;10.420;2023-05-07T08:39:54;12.63;;;7.97;;
45296;SDS011;31040;51.622;10.420;2023-05-07T08:42:23;11.95;;;9.00;;
45296;SDS011;31040;51.622;10.420;2023-05-07T08:44:51;13.45;;;8.80;;
45296;SDS011;31040;51.622;10.420;2023-05-07T08:47:22;9.73;;;6.70;;
45296;SDS011;31040;51.622;10.420;2023-05-07T08:49:51;11.90;;;8.57;;
45296;SDS011;31040;51.622;10.420;2023-05-07T08:52:19;13.43;;;9.38;;
45296;SDS011;31040;51.622;10.420;2023-05-07T08:54:47;13.10;;;9.43;;
45296;SDS011;31040;51.622;10.420;2023-05-07T08:57:14;15.02;;;8.95;;
45296;SDS011;31040;51.622;10.420;2023-05-07T08:59:41;14.02;;;9.20;;
45296;SDS011;31040;51.622;10.420;2023-05-07T09:02:09;12.45;;;9.05;;
45296;SDS011;31040;51.622;10.420;2023-05-07T09:04:37;12.13;;;8.70;;
45296;SDS011;31040;51.622;10.420;2023-05-07T09:07:04;14.88;;;9.18;;
45296;SDS011;31040;51.622;10.420;2023-05-07T09:09:32;13.43;;;9.68;;
45296;SDS011;31040;51.622;10.420;2023-05-07T09:12:00;13.48;;;10.20;;
45296;SDS011;31040;51.622;10.420;2023-05-07T09:14:28;12.27;;;9.88;;
45296;SDS011;31040;51.622;10.420;2023-05-07T09:16:56;13.85;;;9.55;;
45296;SDS011;31040;51.622;10.420;2023-05-07T09:19:24;13.73;;;9.52;;
45296;SDS011;31040;51.622;10.420;2023-05-07T09:21:59;12.15;;;9.43;;
45296;SDS011;31040;51.622;10.420;2023-05-07T09:24:27;13.13;;;9.43;;
45296;SDS011;31040;51.622;10.420;2023-05-07T09:27:00;13.15;;;9.68;;
45296;SDS011;31040;51.622;10.420;2023-05-07T09:29:28;19.05;;;11.15;;
45296;SDS011;31040;51.622;10.420;2023-05-07T09:31:56;14.75;;;10.25;;
45296;SDS011;31040;51.622;10.420;2023-05-07T09:34:23;13.90;;;10.13;;
45296;SDS011;31040;51.622;10.420;2023-05-07T09:36:51;13.18;;;9.80;;
45296;SDS011;31040;51.622;10.420;2023-05-07T09:39:18;12.73;;;9.63;;
45296;SDS011;31040;51.622;10.420;2023-05-07T09:41:46;13.48;;;9.77;;
45296;SDS011;31040;51.622;10.420;2023-05-07T09:44:15;14.07;;;10.93;;
45296;SDS011;31040;51.622;10.420;2023-05-07T09:46:43;12.85;;;8.85;;
45296;SDS011;31040;51.622;10.420;2023-05-07T09:49:18;13.65;;;9.50;;
45296;SDS011;31040;51.622;10.420;2023-05-07T09:51:48;12.95;;;8.63;;
45296;SDS011;31040;51.622;10.420;2023-05-07T09:54:16;11.98;;;8.57;;
45296;SDS011;31040;51.622;10.420;2023-05-07T09:56:44;11.00;;;8.75;;
45296;SDS011;31040;51.622;10.420;2023-05-07T09:59:15;11.95;;;8.88;;
45296;SDS011;31040;51.622;10.420;2023-05-07T10:01:43;11.95;;;8.85;;
45296;SDS011;31040;51.622;10.420;2023-05-07T10:04:11;11.00;;;8.68;;
45296;SDS011;31040;51.622;10.420;2023-05-07T10:06:38;11.98;;;9.43;;
45296;SDS011;31040;51.622;10.420;2023-05-07T10:09:06;11.82;;;9.80;;
45296;SDS011;31040;51.622;10.420;2023-05-07T10:11:34;11.68;;;8.23;;
45296;SDS011;31040;51.622;10.420;2023-05-07T10:14:02;12.85;;;9.45;;
45296;SDS011;31040;51.622;10.420;2023-05-07T10:16:33;12.18;;;9.13;;
45296;SDS011;31040;51.622;10.420;2023-05-07T10:19:03;12.38;;;9.95;;
45296;SDS011;31040;51.622;10.420;2023-05-07T10:21:36;13.23;;;9.48;;
45296;SDS011;31040;51.622;10.420;2023-05-07T10:26:36;13.20;;;10.57;;
45296;SDS011;31040;51.622;10.420;2023-05-07T10:29:06;14.02;;;11.13;;
45296;SDS011;31040;51.622;10.420;2023-05-07T10:34:19;13.25;;;8.95;;
45296;SDS011;31040;51.622;10.420;2023-05-07T10:36:48;14.70;;;11.75;;
45296;SDS011;31040;51.622;10.420;2023-05-07T10:39:16;11.95;;;9.20;;
45296;SDS011;31040;51.622;10.420;2023-05-07T10:41:44;12.13;;;9.75;;
45296;SDS011;31040;51.622;10.420;2023-05-07T10:44:11;13.80;;;10.90;;
45296;SDS011;31040;51.622;10.420;2023-05-07T10:46:38;21.80;;;15.68;;
45296;SDS011;31040;51.622;10.420;2023-05-07T10:49:06;14.15;;;11.35;;
45296;SDS011;31040;51.622;10.420;2023-05-07T10:51:34;16.25;;;12.57;;
45296;SDS011;31040;51.622;10.420;2023-05-07T10:56:39;12.13;;;10.02;;
45296;SDS011;31040;51.622;10.420;2023-05-07T11:04:25;12.02;;;10.23;;
45296;SDS011;31040;51.622;10.420;2023-05-07T11:15:07;13.00;;;10.43;;
45296;SDS011;31040;51.622;10.420;2023-05-07T11:17:52;11.57;;;10.20;;
45296;SDS011;31040;51.622;10.420;2023-05-07T11:20:20;12.63;;;9.57;;
45296;SDS011;31040;51.622;10.420;2023-05-07T11:22:47;13.27;;;10.65;;
45296;SDS011;31040;51.622;10.420;2023-05-07T11:25:18;13.88;;;11.32;;
45296;SDS011;31040;51.622;10.420;2023-05-07T11:27:45;11.38;;;9.35;;
45296;SDS011;31040;51.622;10.420;2023-05-07T11:30:16;10.38;;;8.85;;
45296;SDS011;31040;51.622;10.420;2023-05-07T11:32:47;10.80;;;9.25;;
45296;SDS011;31040;51.622;10.420;2023-05-07T11:35:15;8.50;;;6.28;;
45296;SDS011;31040;51.622;10.420;2023-05-07T11:37:43;17.95;;;10.50;;
45296;SDS011;31040;51.622;10.420;2023-05-07T11:40:11;10.38;;;7.05;;
45296;SDS011;31040;51.622;10.420;2023-05-07T11:42:40;12.98;;;9.10;;
45296;SDS011;31040;51.622;10.420;2023-05-07T11:45:09;9.57;;;7.97;;
45296;SDS011;31040;51.622;10.420;2023-05-07T11:47:37;8.55;;;6.32;;
45296;SDS011;31040;51.622;10.420;2023-05-07T11:50:06;12.38;;;8.77;;
45296;SDS011;31040;51.622;10.420;2023-05-07T11:52:34;10.80;;;8.18;;
45296;SDS011;31040;51.622;10.420;2023-05-07T11:55:02;11.77;;;8.25;;
45296;SDS011;31040;51.622;10.420;2023-05-07T11:57:32;10.32;;;8.02;;
45296;SDS011;31040;51.622;10.420;2023-05-07T12:00:00;9.68;;;7.68;;
45296;SDS011;31040;51.622;10.420;2023-05-07T12:02:31;9.60;;;5.70;;
45296;SDS011;31040;51.622;10.420;2023-05-07T12:05:01;10.27;;;8.20;;
45296;SDS011;31040;51.622;10.420;2023-05-07T12:07:28;8.88;;;7.97;;
45296;SDS011;31040;51.622;10.420;2023-05-07T12:09:56;10.50;;;8.05;;
45296;SDS011;31040;51.622;10.420;2023-05-07T12:12:23;10.00;;;7.72;;
45296;SDS011;31040;51.622;10.420;2023-05-07T12:14:51;9.60;;;7.10;;
45296;SDS011;31040;51.622;10.420;2023-05-07T12:17:19;7.85;;;6.57;;
45296;SDS011;31040;51.622;10.420;2023-05-07T12:19:46;10.38;;;8.05;;
45296;SDS011;31040;51.622;10.420;2023-05-07T12:22:14;8.05;;;7.25;;
45296;SDS011;31040;51.622;10.420;2023-05-07T12:24:45;7.85;;;7.05;;
45296;SDS011;31040;51.622;10.420;2023-05-07T12:27:13;8.13;;;7.10;;
45296;SDS011;31040;51.622;10.420;2023-05-07T12:29:47;8.73;;;7.00;;
45296;SDS011;31040;51.622;10.420;2023-05-07T12:32:15;8.15;;;7.30;;
45296;SDS011;31040;51.622;10.420;2023-05-07T12:34:46;8.93;;;7.95;;
45296;SDS011;31040;51.622;10.420;2023-05-07T12:37:14;10.60;;;7.90;;
45296;SDS011;31040;51.622;10.420;2023-05-07T12:39:47;9.80;;;8.30;;
45296;SDS011;31040;51.622;10.420;2023-05-07T12:42:16;6.43;;;5.30;;
45296;SDS011;31040;51.622;10.420;2023-05-07T12:44:45;8.43;;;7.53;;
45296;SDS011;31040;51.622;10.420;2023-05-07T12:47:13;10.77;;;7.75;;
45296;SDS011;31040;51.622;10.420;2023-05-07T12:49:42;9.85;;;7.55;;
45296;SDS011;31040;51.622;10.420;2023-05-07T12:52:11;10.75;;;9.15;;
45296;SDS011;31040;51.622;10.420;2023-05-07T12:54:39;9.60;;;8.32;;
45296;SDS011;31040;51.622;10.420;2023-05-07T12:57:07;10.30;;;8.88;;
45296;SDS011;31040;51.622;10.420;2023-05-07T12:59:35;11.77;;;9.43;;
45296;SDS011;31040;51.622;10.420;2023-05-07T13:02:04;10.93;;;9.93;;
45296;SDS011;31040;51.622;10.420;2023-05-07T13:04:32;10.50;;;9.40;;
45296;SDS011;31040;51.622;10.420;2023-05-07T13:07:00;10.10;;;9.10;;
45296;SDS011;31040;51.622;10.420;2023-05-07T13:09:27;9.82;;;8.82;;
45296;SDS011;31040;51.622;10.420;2023-05-07T13:11:58;9.93;;;8.93;;
45296;SDS011;31040;51.622;10.420;2023-05-07T13:14:28;10.55;;;9.45;;
45296;SDS011;31040;51.622;10.420;2023-05-07T13:16:56;9.95;;;8.98;;
45296;SDS011;31040;51.622;10.420;2023-05-07T13:19:23;8.32;;;7.20;;
45296;SDS011;31040;51.622;10.420;2023-05-07T13:21:50;11.32;;;10.00;;
45296;SDS011;31040;51.622;10.420;2023-05-07T13:24:18;9.77;;;8.77;;
45296;SDS011;31040;51.622;10.420;2023-05-07T13:26:45;12.20;;;9.65;;
45296;SDS011;31040;51.622;10.420;2023-05-07T13:29:12;9.43;;;8.27;;
45296;SDS011;31040;51.622;10.420;2023-05-07T13:31:40;9.93;;;8.70;;
45296;SDS011;31040;51.622;10.420;2023-05-07T13:34:10;9.65;;;8.75;;
45296;SDS011;31040;51.622;10.420;2023-05-07T13:36:37;9.73;;;8.82;;
45296;SDS011;31040;51.622;10.420;2023-05-07T13:39:06;10.95;;;9.95;;
45296;SDS011;31040;51.622;10.420;2023-05-07T13:41:33;7.93;;;7.15;;
45296;SDS011;31040;51.622;10.420;2023-05-07T13:44:01;8.77;;;7.95;;
45296;SDS011;31040;51.622;10.420;2023-05-07T13:46:28;8.98;;;6.65;;
45296;SDS011;31040;51.622;10.420;2023-05-07T13:48:56;7.70;;;6.78;;
45296;SDS011;31040;51.622;10.420;2023-05-07T13:51:23;8.73;;;7.93;;
45296;SDS011;31040;51.622;10.420;2023-05-07T13:53:52;8.23;;;7.50;;
45296;SDS011;31040;51.622;10.420;2023-05-07T13:56:20;7.30;;;6.63;;
45296;SDS011;31040;51.622;10.420;2023-05-07T13:58:48;9.48;;;8.57;;
45296;SDS011;31040;51.622;10.420;2023-05-07T14:01:25;7.95;;;7.15;;
45296;SDS011;31040;51.622;10.420;2023-05-07T14:03:53;8.75;;;8.00;;
45296;SDS011;31040;51.622;10.420;2023-05-07T14:06:21;7.38;;;6.68;;
45296;SDS011;31040;51.622;10.420;2023-05-07T14:08:48;8.15;;;7.45;;
45296;SDS011;31040;51.622;10.420;2023-05-07T14:11:15;8.43;;;7.55;;
45296;SDS011;31040;51.622;10.420;2023-05-07T14:13:43;6.90;;;6.30;;
45296;SDS011;31040;51.622;10.420;2023-05-07T14:16:10;8.35;;;7.55;;
45296;SDS011;31040;51.622;10.420;2023-05-07T14:18:38;7.53;;;6.68;;
45296;SDS011;31040;51.622;10.420;2023-05-07T14:21:05;7.70;;;7.00;;
45296;SDS011;31040;51.622;10.420;2023-05-07T14:23:33;7.20;;;6.28;;
45296;SDS011;31040;51.622;10.420;2023-05-07T14:26:00;6.22;;;5.72;;
45296;SDS011;31040;51.622;10.420;2023-05-07T14:28:28;7.85;;;7.13;;
45296;SDS011;31040;51.622;10.420;2023-05-07T14:30:55;7.13;;;6.53;;
45296;SDS011;31040;51.622;10.420;2023-05-07T14:33:23;7.90;;;6.88;;
45296;SDS011;31040;51.622;10.420;2023-05-07T14:35:50;5.03;;;4.50;;
45296;SDS011;31040;51.622;10.420;2023-05-07T14:38:17;8.00;;;5.70;;
45296;SDS011;31040;51.622;10.420;2023-05-07T14:40:45;9.20;;;8.38;;
45296;SDS011;31040;51.622;10.420;2023-05-07T14:43:12;6.70;;;6.10;;
45296;SDS011;31040;51.622;10.420;2023-05-07T14:45:40;9.45;;;8.52;;
45296;SDS011;31040;51.622;10.420;2023-05-07T14:48:07;8.85;;;8.05;;